createdAt,value
2023-05-15T00:00:44.585Z,2.20
2023-05-15T00:03:12.461Z,2.20
2023-05-15T00:05:39.862Z,1.90
2023-05-15T00:08:06.583Z,1.90
2023-05-15T00:10:33.313Z,2.20
2023-05-15T00:13:00.009Z,2.10
2023-05-15T00:15:27.019Z,2.10
2023-05-15T00:17:54.269Z,2.20
2023-05-15T00:20:21.150Z,2.10
2023-05-15T00:22:47.977Z,2.30
2023-05-15T00:25:15.302Z,1.90
2023-05-15T00:27:42.215Z,2.20
2023-05-15T00:30:09.582Z,2.30
2023-05-15T00:32:36.306Z,2.40
2023-05-15T00:35:03.237Z,2.00
2023-05-15T00:37:31.345Z,2.40
2023-05-15T00:39:58.074Z,2.00
2023-05-15T00:42:25.471Z,2.00
2023-05-15T00:44:52.687Z,2.10
2023-05-15T00:47:21.164Z,2.30
2023-05-15T00:49:48.428Z,1.90
2023-05-15T00:52:15.489Z,2.00
2023-05-15T00:54:42.479Z,2.10
2023-05-15T00:57:09.726Z,2.40
2023-05-15T00:59:36.635Z,2.30
2023-05-15T01:02:04.247Z,2.10
2023-05-15T01:04:31.444Z,1.90
2023-05-15T01:06:58.442Z,2.60
2023-05-15T01:09:27.788Z,2.10
2023-05-15T01:11:55.051Z,1.90
2023-05-15T01:14:21.976Z,2.30
2023-05-15T01:16:48.855Z,2.10
2023-05-15T01:19:15.785Z,2.20
2023-05-15T01:22:01.239Z,2.20
2023-05-15T01:25:03.751Z,1.90
2023-05-15T01:27:36.413Z,2.20
2023-05-15T01:30:12.531Z,2.00
2023-05-15T01:33:08.812Z,2.20
2023-05-15T01:35:44.183Z,2.30
2023-05-15T01:38:39.532Z,2.30
2023-05-15T01:41:10.109Z,2.50
2023-05-15T01:43:39.246Z,2.30
2023-05-15T01:46:08.141Z,2.30
2023-05-15T01:48:36.649Z,2.20
2023-05-15T01:51:04.014Z,2.50
2023-05-15T01:53:32.439Z,2.30
2023-05-15T01:55:59.451Z,2.30
2023-05-15T01:58:27.115Z,2.20
2023-05-15T02:00:54.077Z,2.60
2023-05-15T02:03:21.351Z,2.20
2023-05-15T02:05:48.660Z,2.20
2023-05-15T02:08:16.849Z,2.20
2023-05-15T02:10:44.036Z,2.20
2023-05-15T02:13:11.364Z,2.30
2023-05-15T02:15:38.232Z,2.10
2023-05-15T02:18:05.429Z,2.40
2023-05-15T02:20:32.754Z,2.30
2023-05-15T02:22:59.476Z,2.50
2023-05-15T02:26:08.058Z,2.40
2023-05-15T02:28:48.520Z,2.50
2023-05-15T02:31:21.744Z,2.10
2023-05-15T02:33:59.268Z,2.30
2023-05-15T02:36:30.995Z,2.60
2023-05-15T02:38:57.741Z,2.40
2023-05-15T02:41:24.567Z,2.50
2023-05-15T02:43:52.364Z,2.50
2023-05-15T02:46:20.168Z,2.30
2023-05-15T02:48:47.450Z,2.40
2023-05-15T02:51:14.349Z,2.40
2023-05-15T02:53:41.722Z,2.90
2023-05-15T02:56:08.904Z,2.60
2023-05-15T02:58:35.682Z,2.90
2023-05-15T03:01:02.601Z,2.80
2023-05-15T03:03:29.421Z,3.10
2023-05-15T03:05:56.180Z,2.90
2023-05-15T03:08:23.028Z,2.90
2023-05-15T03:10:50.093Z,2.80
2023-05-15T03:13:16.859Z,2.70
2023-05-15T03:15:45.470Z,2.70
2023-05-15T03:18:12.600Z,2.60
2023-05-15T03:20:39.368Z,2.90
2023-05-15T03:23:06.174Z,2.80
2023-05-15T03:25:32.968Z,2.50
2023-05-15T03:27:59.962Z,2.60
2023-05-15T03:30:26.786Z,2.40
2023-05-15T03:32:53.662Z,2.60
2023-05-15T03:35:20.689Z,2.60
2023-05-15T03:37:47.610Z,3.10
2023-05-15T03:40:14.599Z,2.50
2023-05-15T03:42:41.451Z,2.70
2023-05-15T03:45:08.881Z,2.80
2023-05-15T03:47:35.729Z,2.40
2023-05-15T03:50:02.512Z,2.60
2023-05-15T03:52:33.309Z,2.30
2023-05-15T03:55:00.061Z,2.60
2023-05-15T03:57:27.274Z,2.60
2023-05-15T03:59:54.259Z,2.40
2023-05-15T04:02:21.176Z,3.00
2023-05-15T04:04:48.072Z,2.70
2023-05-15T04:07:14.946Z,2.60
2023-05-15T04:09:42.908Z,2.50
2023-05-15T04:12:09.940Z,2.40
2023-05-15T04:14:36.667Z,2.10
2023-05-15T04:17:03.523Z,2.40
2023-05-15T04:19:30.477Z,2.40
2023-05-15T04:21:57.210Z,2.80
2023-05-15T04:24:24.007Z,2.50
2023-05-15T04:26:50.902Z,2.30
2023-05-15T04:29:17.773Z,2.80
2023-05-15T04:31:44.694Z,2.30
2023-05-15T04:34:11.555Z,2.30
2023-05-15T04:38:30.368Z,2.60
2023-05-15T04:40:57.134Z,2.40
2023-05-15T04:43:23.886Z,2.50
2023-05-15T04:45:50.867Z,2.60
2023-05-15T04:48:19.230Z,2.80
2023-05-15T04:50:45.971Z,2.70
2023-05-15T04:53:12.786Z,3.00
2023-05-15T04:55:39.831Z,2.20
2023-05-15T04:58:06.704Z,2.70
2023-05-15T05:00:33.519Z,3.10
2023-05-15T05:03:00.435Z,2.80
2023-05-15T05:05:27.728Z,2.50
2023-05-15T05:07:54.585Z,2.80
2023-05-15T05:10:21.493Z,2.40
2023-05-15T05:12:48.243Z,2.60
2023-05-15T05:15:15.254Z,2.50
2023-05-15T05:17:42.319Z,2.70
2023-05-15T05:20:12.651Z,2.80
2023-05-15T05:22:41.071Z,3.20
2023-05-15T05:25:08.176Z,2.90
2023-05-15T05:27:34.902Z,3.60
2023-05-15T05:30:02.221Z,3.70
2023-05-15T05:32:29.151Z,3.00
2023-05-15T05:34:56.128Z,3.00
2023-05-15T05:37:23.201Z,3.50
2023-05-15T05:39:49.922Z,3.60
2023-05-15T05:42:16.740Z,3.00
2023-05-15T05:44:43.561Z,3.20
2023-05-15T05:47:10.360Z,3.10
2023-05-15T05:49:37.444Z,3.40
2023-05-15T05:52:08.206Z,3.00
2023-05-15T05:54:35.006Z,2.90
2023-05-15T05:57:01.757Z,3.20
2023-05-15T05:59:29.697Z,3.00
2023-05-15T06:01:56.624Z,2.90
2023-05-15T06:04:23.465Z,2.90
2023-05-15T06:06:50.504Z,2.80
2023-05-15T06:09:18.152Z,3.20
2023-05-15T06:11:45.563Z,3.30
2023-05-15T06:14:12.629Z,3.20
2023-05-15T06:16:39.698Z,3.60
2023-05-15T06:19:06.716Z,3.30
2023-05-15T06:21:33.990Z,2.90
2023-05-15T06:24:00.869Z,2.80
2023-05-15T06:26:27.651Z,3.40
2023-05-15T06:28:54.382Z,2.90
2023-05-15T06:31:21.599Z,2.70
2023-05-15T06:33:48.453Z,3.00
2023-05-15T06:36:15.929Z,2.70
2023-05-15T06:38:42.766Z,3.00
2023-05-15T06:41:09.598Z,2.60
2023-05-15T06:43:38.374Z,4.20
2023-05-15T06:46:05.492Z,4.50
2023-05-15T06:48:32.379Z,3.90
2023-05-15T06:50:59.116Z,3.50
2023-05-15T06:53:25.992Z,3.20
2023-05-15T06:55:52.836Z,3.40
2023-05-15T06:58:19.790Z,3.00
2023-05-15T07:00:46.570Z,3.30
2023-05-15T07:03:14.586Z,2.80
2023-05-15T07:05:41.386Z,2.80
2023-05-15T07:08:08.233Z,2.60
2023-05-15T07:10:35.000Z,2.50
2023-05-15T07:13:01.893Z,2.40
2023-05-15T07:15:28.775Z,2.60
2023-05-15T07:17:55.891Z,2.40
2023-05-15T07:20:23.785Z,2.30
2023-05-15T07:22:56.478Z,2.60
2023-05-15T07:25:25.042Z,2.40
2023-05-15T07:27:52.487Z,2.10
2023-05-15T07:30:19.325Z,2.30
2023-05-15T07:32:46.243Z,2.70
2023-05-15T07:35:12.990Z,2.70
2023-05-15T07:37:39.793Z,2.80
2023-05-15T07:40:07.815Z,2.80
2023-05-15T07:42:34.634Z,2.60
2023-05-15T07:45:01.402Z,2.30
2023-05-15T07:47:28.238Z,2.60
2023-05-15T07:49:55.102Z,2.30
2023-05-15T07:52:22.142Z,2.60
2023-05-15T07:54:49.528Z,2.30
2023-05-15T07:57:16.301Z,2.50
2023-05-15T07:59:43.107Z,2.80
2023-05-15T08:02:09.914Z,2.20
2023-05-15T08:04:36.694Z,2.30
2023-05-15T08:07:04.753Z,3.10
2023-05-15T08:09:31.452Z,2.80
2023-05-15T08:12:03.840Z,3.00
2023-05-15T08:14:30.757Z,2.70
2023-05-15T08:16:57.855Z,2.90
2023-05-15T08:19:25.063Z,3.20
2023-05-15T08:21:51.897Z,2.90
2023-05-15T08:24:18.789Z,2.90
2023-05-15T08:26:45.671Z,2.60
2023-05-15T08:29:12.595Z,2.30
2023-05-15T08:31:39.338Z,2.50
2023-05-15T08:34:06.181Z,2.50
2023-05-15T08:36:33.913Z,2.00
2023-05-15T08:39:00.730Z,2.80
2023-05-15T08:41:40.994Z,2.70
2023-05-15T08:44:09.376Z,2.30
2023-05-15T08:46:36.446Z,2.50
2023-05-15T08:49:12.151Z,2.60
2023-05-15T08:51:39.026Z,2.20
2023-05-15T08:54:05.815Z,2.60
2023-05-15T08:56:32.703Z,2.60
2023-05-15T08:58:59.583Z,2.40
2023-05-15T09:01:26.372Z,2.30
2023-05-15T09:03:53.217Z,2.20
2023-05-15T09:06:20.057Z,2.00
2023-05-15T09:08:47.046Z,2.80
2023-05-15T09:11:14.207Z,2.20
2023-05-15T09:13:40.963Z,2.10
2023-05-15T09:16:08.130Z,2.00
2023-05-15T09:18:35.027Z,2.00
2023-05-15T09:21:25.561Z,2.10
2023-05-15T09:23:53.600Z,1.80
2023-05-15T09:26:21.893Z,2.10
2023-05-15T09:28:48.861Z,2.20
2023-05-15T09:31:19.568Z,1.90
2023-05-15T09:33:46.407Z,2.20
2023-05-15T09:36:13.301Z,2.30
2023-05-15T09:38:42.502Z,2.20
2023-05-15T09:41:09.618Z,2.40
2023-05-15T09:43:40.597Z,2.50
2023-05-15T09:46:08.657Z,2.30
2023-05-15T09:48:35.993Z,2.40
2023-05-15T09:51:04.698Z,1.90
2023-05-15T09:53:31.900Z,2.10
2023-05-15T09:55:58.715Z,2.30
2023-05-15T09:58:25.652Z,2.20
2023-05-15T10:00:52.444Z,2.20
2023-05-15T10:03:22.588Z,2.10
2023-05-15T10:05:49.889Z,1.90
2023-05-15T10:08:20.331Z,2.20
2023-05-15T10:10:47.237Z,2.00
2023-05-15T10:13:14.300Z,2.40
2023-05-15T10:15:41.243Z,2.80
2023-05-15T10:18:08.348Z,2.40
2023-05-15T10:20:38.116Z,2.60
2023-05-15T10:25:42.390Z,2.40
2023-05-15T10:28:10.378Z,2.20
2023-05-15T10:30:37.621Z,2.10
2023-05-15T10:33:04.948Z,2.40
2023-05-15T10:35:31.836Z,2.40
2023-05-15T10:37:58.791Z,1.90
2023-05-15T10:40:25.794Z,2.20
2023-05-15T10:42:52.967Z,2.10
2023-05-15T10:45:20.067Z,2.00
2023-05-15T10:47:46.865Z,2.20
2023-05-15T10:50:14.377Z,2.30
2023-05-15T10:52:41.824Z,2.10
2023-05-15T10:55:09.708Z,2.20
2023-05-15T10:57:37.946Z,2.20
2023-05-15T11:00:19.714Z,2.10
2023-05-15T11:02:46.690Z,1.90
2023-05-15T11:05:14.430Z,2.10
2023-05-15T11:07:41.450Z,1.80
2023-05-15T11:10:27.904Z,2.20
2023-05-15T11:12:55.949Z,2.40
2023-05-15T11:15:23.137Z,2.50
2023-05-15T11:18:10.923Z,2.00
2023-05-15T11:20:39.483Z,2.60
2023-05-15T11:23:06.583Z,2.20
2023-05-15T11:25:34.650Z,2.70
2023-05-15T11:28:02.908Z,2.60
2023-05-15T11:30:39.725Z,2.00
2023-05-15T11:33:12.946Z,2.00
2023-05-15T11:35:45.865Z,2.10
2023-05-15T11:38:17.417Z,2.00
2023-05-15T11:40:52.804Z,2.50
2023-05-15T11:43:25.049Z,2.60
2023-05-15T11:46:00.022Z,2.20
2023-05-15T11:48:41.452Z,2.30
2023-05-15T11:51:19.511Z,2.00
2023-05-15T11:53:46.538Z,2.60
2023-05-15T11:56:18.429Z,2.30
2023-05-15T11:58:47.823Z,2.50
2023-05-15T12:01:14.520Z,2.60
2023-05-15T12:03:41.407Z,2.40
2023-05-15T12:06:08.512Z,2.40
2023-05-15T12:08:36.329Z,2.60
2023-05-15T12:11:04.022Z,2.80
2023-05-15T12:13:31.847Z,2.60
2023-05-15T12:15:59.233Z,2.80
2023-05-15T12:18:26.794Z,2.80
2023-05-15T12:20:53.961Z,2.90
2023-05-15T12:23:21.878Z,2.80
2023-05-15T12:25:49.624Z,3.20
2023-05-15T12:28:16.457Z,3.20
2023-05-15T12:30:43.251Z,3.00
2023-05-15T12:33:10.678Z,3.20
2023-05-15T12:35:44.637Z,3.10
2023-05-15T12:38:16.309Z,2.50
2023-05-15T12:40:43.908Z,3.10
2023-05-15T12:43:11.093Z,3.20
2023-05-15T12:45:38.753Z,2.60
2023-05-15T12:48:07.446Z,3.30
2023-05-15T12:50:35.042Z,3.00
2023-05-15T12:53:03.152Z,2.80
2023-05-15T12:55:34.324Z,2.90
2023-05-15T12:58:08.219Z,3.10
2023-05-15T13:00:36.457Z,3.60
2023-05-15T13:03:03.561Z,2.70
2023-05-15T13:05:34.297Z,3.30
2023-05-15T13:08:02.734Z,3.20
2023-05-15T13:10:32.130Z,3.10
2023-05-15T13:12:59.010Z,3.20
2023-05-15T13:15:52.161Z,3.10
2023-05-15T13:18:18.969Z,3.00
2023-05-15T13:20:51.751Z,3.20
2023-05-15T13:23:20.552Z,3.00
2023-05-15T13:25:47.380Z,2.80
2023-05-15T13:28:14.313Z,2.90
2023-05-15T13:30:44.139Z,3.50
2023-05-15T13:35:39.252Z,2.90
2023-05-15T13:38:07.047Z,3.00
2023-05-15T13:40:37.991Z,3.10
2023-05-15T13:45:34.173Z,2.80
2023-05-15T13:48:02.688Z,2.80
2023-05-15T13:50:30.196Z,2.60
2023-05-15T13:52:57.565Z,3.30
2023-05-15T13:55:26.178Z,3.20
2023-05-15T13:57:55.138Z,3.20
2023-05-15T14:00:22.260Z,3.20
2023-05-15T14:02:49.352Z,3.10
2023-05-15T14:05:17.845Z,2.80
2023-05-15T14:07:47.597Z,2.90
2023-05-15T14:10:14.571Z,3.30
2023-05-15T14:12:44.745Z,2.90
2023-05-15T14:15:12.119Z,2.90
2023-05-15T14:17:39.624Z,3.00
2023-05-15T14:20:07.523Z,2.50
2023-05-15T14:22:34.591Z,2.80
2023-05-15T14:25:04.048Z,2.50
2023-05-15T14:27:31.389Z,2.70
2023-05-15T14:29:58.641Z,2.90
2023-05-15T14:32:25.845Z,2.80
2023-05-15T14:34:52.863Z,2.70
2023-05-15T14:37:19.941Z,3.20
2023-05-15T14:39:47.108Z,3.30
2023-05-15T14:42:14.102Z,3.20
2023-05-15T14:44:41.139Z,3.80
2023-05-15T14:47:20.277Z,3.20
2023-05-15T14:49:47.395Z,3.10
2023-05-15T14:52:14.272Z,3.70
2023-05-15T14:54:41.003Z,4.70
2023-05-15T14:57:08.080Z,4.00
2023-05-15T14:59:35.067Z,3.50
2023-05-15T15:02:02.081Z,3.50
2023-05-15T15:04:34.007Z,4.00
2023-05-15T15:07:04.526Z,3.90
2023-05-15T15:09:31.404Z,4.20
2023-05-15T15:11:58.126Z,4.50
2023-05-15T15:14:24.901Z,5.10
2023-05-15T15:16:51.885Z,4.00
2023-05-15T15:19:20.499Z,5.00
2023-05-15T15:21:47.868Z,5.30
2023-05-15T15:24:16.339Z,7.10
2023-05-15T15:26:46.723Z,9.20
2023-05-15T15:29:13.440Z,10.80
2023-05-15T15:31:40.212Z,10.00
2023-05-15T15:34:08.916Z,9.80
2023-05-15T15:36:39.684Z,11.30
2023-05-15T15:39:06.513Z,11.00
2023-05-15T15:41:37.819Z,9.50
2023-05-15T15:44:08.226Z,8.60
2023-05-15T15:46:39.124Z,6.00
2023-05-15T15:49:07.682Z,5.40
2023-05-15T15:51:34.601Z,5.40
2023-05-15T15:54:01.629Z,4.50
2023-05-15T15:56:28.360Z,4.60
2023-05-15T15:58:55.118Z,4.60
2023-05-15T16:01:22.573Z,4.40
2023-05-15T16:03:49.717Z,4.70
2023-05-15T16:06:16.766Z,4.00
2023-05-15T16:08:44.686Z,4.10
2023-05-15T16:11:13.256Z,4.30
2023-05-15T16:13:41.283Z,3.80
2023-05-15T16:16:09.124Z,3.80
2023-05-15T16:18:36.172Z,4.10
2023-05-15T16:21:03.069Z,4.30
2023-05-15T16:23:34.995Z,4.20
2023-05-15T16:26:04.086Z,4.40
2023-05-15T16:28:32.670Z,4.50
2023-05-15T16:31:00.989Z,4.80
2023-05-15T16:33:28.368Z,4.90
2023-05-15T16:35:57.139Z,5.10
2023-05-15T16:38:25.204Z,4.70
2023-05-15T16:40:54.835Z,4.10
2023-05-15T16:43:24.435Z,5.10
2023-05-15T16:45:53.641Z,4.50
2023-05-15T16:48:23.210Z,4.80
2023-05-15T16:50:49.989Z,4.00
2023-05-15T16:55:20.579Z,4.40
2023-05-15T16:57:49.109Z,3.80
2023-05-15T17:00:22.006Z,4.30
2023-05-15T17:02:52.213Z,3.60
2023-05-15T17:05:20.824Z,3.50
2023-05-15T17:07:49.254Z,3.50
2023-05-15T17:10:17.120Z,3.50
2023-05-15T17:12:45.266Z,3.50
2023-05-15T17:15:13.564Z,3.50
2023-05-15T17:17:41.966Z,4.00
2023-05-15T17:20:16.760Z,3.40
2023-05-15T17:22:44.482Z,3.50
2023-05-15T17:25:13.600Z,3.90
2023-05-15T17:27:51.709Z,2.90
2023-05-15T17:30:26.861Z,3.00
2023-05-15T17:32:56.177Z,2.60
2023-05-15T17:35:24.495Z,3.20
2023-05-15T17:37:52.280Z,3.10
2023-05-15T17:40:20.138Z,2.80
2023-05-15T17:42:47.876Z,2.80
2023-05-15T17:45:15.319Z,3.00
2023-05-15T17:47:44.632Z,2.60
2023-05-15T17:50:12.072Z,3.10
2023-05-15T17:52:39.374Z,2.70
2023-05-15T17:55:07.242Z,2.90
2023-05-15T17:57:42.189Z,3.10
2023-05-15T18:02:42.527Z,2.80
2023-05-15T18:05:10.730Z,2.80
2023-05-15T18:07:38.027Z,2.60
2023-05-15T18:10:06.684Z,3.40
2023-05-15T18:12:36.368Z,3.60
2023-05-15T18:15:05.833Z,3.50
2023-05-15T18:17:33.145Z,3.30
2023-05-15T18:20:00.049Z,2.90
2023-05-15T18:22:27.116Z,3.10
2023-05-15T18:24:54.820Z,2.90
2023-05-15T18:27:25.710Z,2.90
2023-05-15T18:29:52.931Z,3.00
2023-05-15T18:32:19.660Z,3.10
2023-05-15T18:34:49.400Z,2.60
2023-05-15T18:37:16.190Z,3.10
2023-05-15T18:39:44.436Z,3.00
2023-05-15T18:42:11.215Z,3.10
2023-05-15T18:44:37.973Z,3.00
2023-05-15T18:47:05.160Z,3.40
2023-05-15T18:49:32.137Z,3.20
2023-05-15T18:51:58.974Z,3.00
2023-05-15T18:54:26.321Z,3.20
2023-05-15T18:56:53.173Z,3.20
2023-05-15T18:59:20.086Z,3.20
2023-05-15T19:01:48.830Z,3.20
2023-05-15T19:04:15.684Z,2.70
2023-05-15T19:06:43.617Z,3.10
2023-05-15T19:09:10.324Z,3.00
2023-05-15T19:11:37.034Z,3.00
2023-05-15T19:14:03.791Z,2.90
2023-05-15T19:16:30.530Z,3.40
2023-05-15T19:18:57.342Z,3.00
2023-05-15T19:21:24.318Z,3.20
2023-05-15T19:23:51.214Z,2.90
2023-05-15T19:26:18.122Z,2.80
2023-05-15T19:28:44.994Z,3.50
2023-05-15T19:31:20.376Z,3.00
2023-05-15T19:33:54.688Z,3.20
2023-05-15T19:36:22.352Z,3.20
2023-05-15T19:38:49.063Z,2.70
2023-05-15T19:41:15.858Z,3.00
2023-05-15T19:43:46.407Z,3.10
2023-05-15T19:46:13.667Z,3.20
2023-05-15T19:48:41.247Z,3.40
2023-05-15T19:51:08.098Z,2.60
2023-05-15T19:53:36.695Z,3.40
2023-05-15T19:56:04.018Z,2.90
2023-05-15T19:58:31.424Z,3.30
2023-05-15T20:00:58.493Z,3.60
2023-05-15T20:03:33.004Z,2.90
2023-05-15T20:06:01.453Z,3.20
2023-05-15T20:08:28.699Z,3.30
2023-05-15T20:10:55.667Z,2.90
2023-05-15T20:13:22.576Z,2.90
2023-05-15T20:16:00.057Z,3.20
2023-05-15T20:18:27.913Z,3.00
2023-05-15T20:20:55.320Z,3.10
2023-05-15T20:23:22.175Z,3.30
2023-05-15T20:25:49.698Z,3.20
2023-05-15T20:28:17.787Z,3.30
2023-05-15T20:30:47.444Z,3.30
2023-05-15T20:33:14.598Z,3.60
2023-05-15T20:35:43.625Z,3.50
2023-05-15T20:38:11.928Z,3.50
2023-05-15T20:40:38.931Z,3.70
2023-05-15T20:43:05.848Z,3.90
2023-05-15T20:45:33.019Z,3.60
2023-05-15T20:48:00.023Z,3.80
2023-05-15T20:50:27.123Z,5.10
2023-05-15T20:52:54.551Z,4.40
2023-05-15T20:55:21.755Z,4.60
2023-05-15T20:57:48.917Z,4.40
2023-05-15T21:00:16.946Z,4.40
2023-05-15T21:02:44.483Z,4.00
2023-05-15T21:05:11.309Z,4.70
2023-05-15T21:07:38.140Z,4.50
2023-05-15T21:10:06.510Z,3.80
2023-05-15T21:12:34.172Z,3.70
2023-05-15T21:15:02.083Z,4.00
2023-05-15T21:17:29.082Z,4.20
2023-05-15T21:19:57.720Z,4.00
2023-05-15T21:22:24.795Z,4.40
2023-05-15T21:24:51.829Z,4.50
2023-05-15T21:27:18.695Z,4.60
2023-05-15T21:29:45.518Z,4.70
2023-05-15T21:32:12.266Z,5.60
2023-05-15T21:34:39.396Z,4.80
2023-05-15T21:37:06.133Z,4.90
2023-05-15T21:39:32.841Z,5.10
2023-05-15T21:41:59.608Z,4.60
2023-05-15T21:44:26.938Z,4.80
2023-05-15T21:46:53.923Z,4.70
2023-05-15T21:49:20.897Z,5.40
2023-05-15T21:51:47.605Z,5.00
2023-05-15T21:54:14.439Z,4.70
2023-05-15T21:56:41.212Z,5.10
2023-05-15T21:59:08.178Z,4.60
2023-05-15T22:01:36.318Z,5.00
2023-05-15T22:04:04.216Z,5.00
2023-05-15T22:06:31.825Z,4.40
2023-05-15T22:08:58.829Z,4.80
2023-05-15T22:11:25.783Z,4.90
2023-05-15T22:13:52.525Z,4.70
2023-05-15T22:16:19.548Z,4.70
2023-05-15T22:18:47.536Z,4.30
2023-05-15T22:21:15.376Z,4.90
2023-05-15T22:23:43.054Z,4.90
2023-05-15T22:26:09.888Z,4.80
2023-05-15T22:28:36.772Z,4.80
2023-05-15T22:31:04.451Z,5.00
2023-05-15T22:33:31.184Z,4.90
2023-05-15T22:35:57.934Z,4.90
2023-05-15T22:38:24.724Z,5.10
2023-05-15T22:40:52.555Z,5.10
2023-05-15T22:43:19.487Z,5.90
2023-05-15T22:45:46.708Z,5.40
2023-05-15T22:48:15.972Z,5.70
2023-05-15T22:50:44.046Z,5.90
2023-05-15T22:53:10.846Z,6.00
2023-05-15T22:55:37.669Z,6.30
2023-05-15T22:58:04.588Z,6.20
2023-05-15T23:00:31.461Z,6.40
2023-05-15T23:02:58.357Z,5.90
2023-05-15T23:05:25.356Z,6.00
2023-05-15T23:07:52.696Z,5.50
2023-05-15T23:10:19.629Z,5.40
2023-05-15T23:12:46.850Z,5.60
2023-05-15T23:15:13.601Z,6.00
2023-05-15T23:17:40.594Z,7.70
2023-05-15T23:20:10.628Z,9.60
2023-05-15T23:22:37.421Z,7.40
2023-05-15T23:25:04.796Z,6.50
2023-05-15T23:27:31.625Z,6.20
2023-05-15T23:29:58.793Z,5.70
2023-05-15T23:32:25.649Z,5.10
2023-05-15T23:34:53.056Z,5.40
2023-05-15T23:37:19.786Z,6.10
2023-05-15T23:39:47.488Z,5.20
2023-05-15T23:42:14.766Z,5.50
2023-05-15T23:44:41.526Z,5.50
2023-05-15T23:47:08.415Z,5.10
2023-05-15T23:49:35.787Z,5.30
2023-05-15T23:52:02.562Z,5.60
2023-05-15T23:54:29.476Z,5.10
2023-05-15T23:56:56.291Z,5.00
2023-05-15T23:59:23.140Z,5.30
